Time;durP1;ratioP1;P1;durP2;ratioP2;P2;SDS_P1;SDS_P2;PMS_P1;PMS_P2;Temp;Humidity;BMP_temperature;BMP_pressure;BME280_temperature;BME280_humidity;BME280_pressure;Samples;Min_cycle;Max_cycle;Signal;HPM_P1;HPM_P2
2021/08/16 00:00:20;;;;;;;;;;;;;;;17.91;51.11;100196.67;1637894;87;20102;-75
2021/08/16 00:02:46;;;;;;;;;;;;;;;17.90;51.19;100185.83;1635019;86;20091;-75
2021/08/16 00:05:14;;;;;;;;;;;;;;;17.88;51.12;100184.59;1648545;87;20115;-75
2021/08/16 00:07:42;;;;;;;;;;;;;;;17.86;51.24;100186.45;1647805;86;20136;-75
2021/08/16 00:10:10;;;;;;;;;;;;;;;17.86;51.39;100179.91;1624598;87;20115;-75
2021/08/16 00:12:36;;;;;;;;;;;;;;;17.84;51.41;100177.38;1646332;87;20115;-75
2021/08/16 00:15:03;;;;;;;;;;;;;;;17.85;51.45;100174.30;1628752;87;20143;-75
2021/08/16 00:17:29;;;;;;;;;;;;;;;17.85;51.56;100175.61;1624371;87;20117;-75
2021/08/16 00:19:55;;;;;;;;;;;;;;;17.84;51.57;100165.61;1600337;87;20170;-75
2021/08/16 00:22:21;;;;;;;;;;;;;;;17.82;51.62;100162.23;1596436;90;20246;-75
2021/08/16 00:24:49;;;;;;;;;;;;;;;17.80;51.71;100161.92;1596447;90;20144;-75
2021/08/16 00:27:15;;;;;;;;;;;;;;;17.80;51.78;100159.31;1620020;87;20117;-75
2021/08/16 00:29:41;;;;;;;;;;;;;;;17.80;51.85;100156.23;1639456;86;20094;-75
2021/08/16 00:32:07;;;;;;;;;;;;;;;17.78;51.85;100154.16;1644566;85;20115;-75
2021/08/16 00:34:33;;;;;;;;;;;;;;;17.76;51.92;100147.32;1623438;85;20512;-75
2021/08/16 00:36:59;;;;;;;;;;;;;;;17.75;52.02;100153.02;1612286;87;20158;-75
2021/08/16 00:39:25;;;;;;;;;;;;;;;17.74;52.04;100153.94;1607208;87;20171;-75
2021/08/16 00:41:51;;;;;;;;;;;;;;;17.73;52.06;100141.79;1610652;88;20171;-75
2021/08/16 00:44:17;;;;;;;;;;;;;;;17.70;52.13;100136.72;1622121;88;20101;-75
2021/08/16 00:46:44;;;;;;;;;;;;;;;17.65;52.20;100137.89;1599288;87;20108;-75
2021/08/16 00:49:10;;;;;;;;;;;;;;;17.62;52.29;100136.74;1623691;88;20150;-75
2021/08/16 00:51:36;;;;;;;;;;;;;;;17.60;52.34;100136.82;1654732;85;20220;-75
2021/08/16 00:54:03;;;;;;;;;;;;;;;17.58;52.38;100137.83;1671607;85;20152;-75
2021/08/16 00:56:30;;;;;;;;;;;;;;;17.54;52.40;100134.06;1671742;85;20109;-75
2021/08/16 00:58:59;;;;;;;;;;;;;;;17.51;52.48;100136.84;1658579;85;20110;-75
2021/08/16 01:01:25;;;;;;;;;;;;;;;17.50;52.55;100139.53;1652231;85;20128;-75
2021/08/16 01:03:51;;;;;;;;;;;;;;;17.47;52.62;100130.08;1651281;85;20099;-75
2021/08/16 01:06:17;;;;;;;;;;;;;;;17.45;52.61;100125.39;1652869;86;20158;-75
2021/08/16 01:08:46;;;;;;;;;;;;;;;17.44;52.70;100128.09;1652768;85;20111;-75
2021/08/16 01:11:12;;;;;;;;;;;;;;;17.40;52.78;100131.78;1656064;85;20091;-75
2021/08/16 01:13:38;;;;;;;;;;;;;;;17.35;52.83;100133.78;1652916;86;20848;-75
2021/08/16 01:16:05;;;;;;;;;;;;;;;17.31;52.75;100128.34;1652634;85;20166;-75
2021/08/16 01:18:35;;;;;;;;;;;;;;;17.26;52.88;100127.73;1652842;86;20131;-75
2021/08/16 01:21:04;;;;;;;;;;;;;;;17.23;52.89;100133.11;1660324;85;20415;-75
2021/08/16 01:23:30;;;;;;;;;;;;;;;17.19;53.02;100137.64;1669356;85;20121;-75
2021/08/16 01:25:56;;;;;;;;;;;;;;;17.16;53.05;100132.11;1658320;85;21095;-75
2021/08/16 01:28:22;;;;;;;;;;;;;;;17.13;53.11;100130.99;1671939;85;20093;-75
2021/08/16 01:30:53;;;;;;;;;;;;;;;17.10;53.20;100125.92;1667326;85;20107;-75
2021/08/16 01:33:19;;;;;;;;;;;;;;;17.08;53.22;100117.78;1651559;86;20132;-75
2021/08/16 01:35:45;;;;;;;;;;;;;;;17.06;53.28;100114.40;1651683;86;20106;-75
2021/08/16 01:38:12;;;;;;;;;;;;;;;17.04;53.37;100113.17;1652728;86;20161;-75
2021/08/16 01:40:37;;;;;;;;;;;;;;;17.00;53.31;100104.26;1660338;85;20115;-75
2021/08/16 01:43:05;;;;;;;;;;;;;;;16.93;53.42;100102.88;1671261;85;20097;-75
2021/08/16 01:45:31;;;;;;;;;;;;;;;16.91;53.49;100108.17;1678514;85;20117;-75
2021/08/16 01:47:57;;;;;;;;;;;;;;;16.88;53.60;100105.25;1670511;85;20154;-75
2021/08/16 01:50:28;;;;;;;;;;;;;;;16.87;53.63;100106.18;1637735;86;20113;-75
2021/08/16 01:52:54;;;;;;;;;;;;;;;16.85;53.70;100100.65;1637849;85;20233;-75
2021/08/16 01:55:20;;;;;;;;;;;;;;;16.83;53.75;100096.80;1648467;87;20217;-75
2021/08/16 01:57:47;;;;;;;;;;;;;;;16.82;53.73;100098.19;1648232;85;20138;-75
2021/08/16 02:00:13;;;;;;;;;;;;;;;16.79;53.76;100093.96;1647727;86;20139;-75
2021/08/16 02:02:39;;;;;;;;;;;;;;;16.75;53.88;100091.58;1656029;85;20111;-75
2021/08/16 02:05:06;;;;;;;;;;;;;;;16.72;53.95;100086.05;1646020;86;20538;-75
2021/08/16 02:07:32;;;;;;;;;;;;;;;16.71;53.97;100088.73;1647524;86;20129;-75
2021/08/16 02:09:58;;;;;;;;;;;;;;;16.68;54.03;100074.53;1628606;86;20146;-75
2021/08/16 02:12:24;;;;;;;;;;;;;;;16.67;54.10;100085.89;1646221;85;20128;-75
2021/08/16 02:14:54;;;;;;;;;;;;;;;16.66;54.15;100077.21;1646252;87;20108;-75
2021/08/16 02:17:20;;;;;;;;;;;;;;;16.67;54.22;100074.98;1646464;85;20168;-75
2021/08/16 02:19:47;;;;;;;;;;;;;;;16.67;54.26;100072.84;1648539;86;20222;-75
2021/08/16 02:22:17;;;;;;;;;;;;;;;16.65;54.30;100069.45;1647017;85;20111;-75
2021/08/16 02:24:43;;;;;;;;;;;;;;;16.62;54.36;100058.70;1654044;86;20099;-75
2021/08/16 02:27:17;;;;;;;;;;;;;;;16.62;54.47;100053.48;1648125;85;20137;-75
2021/08/16 02:29:43;;;;;;;;;;;;;;;16.62;54.53;100053.95;1654742;86;20143;-75
2021/08/16 02:32:09;;;;;;;;;;;;;;;16.63;54.56;100047.80;1648539;87;20135;-75
2021/08/16 02:34:39;;;;;;;;;;;;;;;16.62;54.57;100047.42;1622257;88;20101;-75
2021/08/16 02:37:05;;;;;;;;;;;;;;;16.63;54.61;100045.19;1652192;85;20111;-75
2021/08/16 02:39:31;;;;;;;;;;;;;;;16.62;54.71;100038.28;1647248;86;20096;-75
2021/08/16 02:41:57;;;;;;;;;;;;;;;16.60;54.80;100040.97;1647630;87;20131;-75
2021/08/16 02:44:23;;;;;;;;;;;;;;;16.61;54.87;100043.13;1627826;87;20166;-75
2021/08/16 02:46:49;;;;;;;;;;;;;;;16.58;54.96;100039.36;1655014;85;20221;-75
2021/08/16 02:49:15;;;;;;;;;;;;;;;16.59;55.02;100038.44;1646518;87;20156;-75
2021/08/16 02:51:42;;;;;;;;;;;;;;;16.60;55.03;100028.38;1645827;87;20091;-75
2021/08/16 02:54:08;;;;;;;;;;;;;;;16.60;55.10;100036.21;1643150;87;20154;-75
2021/08/16 02:56:34;;;;;;;;;;;;;;;16.60;55.05;100030.98;1628048;87;20109;-75
2021/08/16 02:59:00;;;;;;;;;;;;;;;16.57;55.03;100039.82;1621766;88;20176;-75
2021/08/16 03:01:26;;;;;;;;;;;;;;;16.56;55.08;100035.52;1619647;87;20177;-75
2021/08/16 03:03:52;;;;;;;;;;;;;;;16.53;55.10;100032.59;1621541;87;20192;-75
2021/08/16 03:06:18;;;;;;;;;;;;;;;16.50;55.16;100028.84;1623949;87;20244;-75
2021/08/16 03:08:44;;;;;;;;;;;;;;;16.48;55.22;100024.16;1621935;88;20130;-75
2021/08/16 03:11:10;;;;;;;;;;;;;;;16.47;55.22;100022.47;1621922;88;20102;-75
2021/08/16 03:13:36;;;;;;;;;;;;;;;16.46;55.24;100016.86;1627951;87;20110;-75
2021/08/16 03:16:02;;;;;;;;;;;;;;;16.44;55.35;100014.78;1621926;88;20145;-75
2021/08/16 03:18:29;;;;;;;;;;;;;;;16.42;55.36;100019.70;1621945;88;20451;-75
2021/08/16 03:20:55;;;;;;;;;;;;;;;16.39;55.42;100014.63;1633023;87;20130;-75
2021/08/16 03:23:21;;;;;;;;;;;;;;;16.35;55.43;100015.70;1622521;87;20172;-75
2021/08/16 03:25:47;;;;;;;;;;;;;;;16.33;55.57;100013.63;1623339;88;20497;-75
2021/08/16 03:28:13;;;;;;;;;;;;;;;16.32;55.62;100014.55;1633298;87;20178;-75
2021/08/16 03:30:39;;;;;;;;;;;;;;;16.29;55.61;100006.41;1623985;87;20118;-75
2021/08/16 03:33:05;;;;;;;;;;;;;;;16.25;55.63;99997.04;1626452;87;20131;-75
2021/08/16 03:35:31;;;;;;;;;;;;;;;16.22;55.68;100003.71;1626595;87;20102;-75
2021/08/16 03:37:57;;;;;;;;;;;;;;;16.18;55.76;99995.19;1622886;87;20126;-75
2021/08/16 03:40:23;;;;;;;;;;;;;;;16.18;55.77;99995.65;1618125;87;20149;-75
2021/08/16 03:42:49;;;;;;;;;;;;;;;16.15;55.81;99999.25;1622342;88;20139;-75
2021/08/16 03:45:19;;;;;;;;;;;;;;;16.14;55.84;100001.48;1623149;88;20814;-75
2021/08/16 03:47:46;;;;;;;;;;;;;;;16.11;55.94;99999.51;1626249;87;20105;-75
2021/08/16 03:50:12;;;;;;;;;;;;;;;16.09;56.03;99993.06;1649732;86;20098;-75
2021/08/16 03:52:38;;;;;;;;;;;;;;;16.07;56.07;99998.81;1654558;85;20131;-75
2021/08/16 03:55:11;;;;;;;;;;;;;;;16.05;56.17;99997.19;1672171;85;20101;-75
2021/08/16 03:57:37;;;;;;;;;;;;;;;16.04;56.30;99999.41;1662006;85;20754;-75
2021/08/16 04:00:06;;;;;;;;;;;;;;;16.02;56.35;99990.36;1650638;85;20111;-75
2021/08/16 04:02:32;;;;;;;;;;;;;;;16.04;56.41;99990.29;1673556;84;20113;-75
2021/08/16 04:04:58;;;;;;;;;;;;;;;16.06;56.40;99983.23;1652963;86;20170;-75
2021/08/16 04:07:26;;;;;;;;;;;;;;;16.08;56.37;99986.61;1650352;85;20114;-75
2021/08/16 04:09:52;;;;;;;;;;;;;;;16.07;56.37;99988.84;1626112;87;20171;-75
2021/08/16 04:12:18;;;;;;;;;;;;;;;16.06;56.40;99989.75;1649807;87;20112;-75
2021/08/16 04:14:44;;;;;;;;;;;;;;;16.06;56.41;99987.15;1655051;85;20135;-75
2021/08/16 04:17:11;;;;;;;;;;;;;;;16.06;56.48;99984.54;1677120;85;20117;-75
2021/08/16 04:19:37;;;;;;;;;;;;;;;16.06;56.57;99984.08;1677390;84;20193;-75
2021/08/16 04:22:03;;;;;;;;;;;;;;;16.06;56.62;99981.93;1677124;85;20898;-75
2021/08/16 04:24:29;;;;;;;;;;;;;;;16.07;56.62;99976.64;1677134;85;20101;-75
2021/08/16 04:26:55;;;;;;;;;;;;;;;16.08;56.70;99980.94;1692233;84;20537;-75
2021/08/16 04:29:21;;;;;;;;;;;;;;;16.10;56.74;99980.87;1686333;84;20146;-75
2021/08/16 04:31:47;;;;;;;;;;;;;;;16.14;56.79;99990.20;1676997;84;20150;-75
2021/08/16 04:34:13;;;;;;;;;;;;;;;16.17;56.82;99979.61;1675986;84;20138;-75
2021/08/16 04:36:40;;;;;;;;;;;;;;;16.20;56.94;99982.07;1676265;84;20113;-75
2021/08/16 04:39:16;;;;;;;;;;;;;;;16.18;56.88;99978.70;1676355;85;20137;-75
2021/08/16 04:41:42;;;;;;;;;;;;;;;16.21;56.95;99980.69;1676959;84;20137;-75
2021/08/16 04:44:08;;;;;;;;;;;;;;;16.24;57.03;99977.09;1677947;84;20192;-75
2021/08/16 04:46:34;;;;;;;;;;;;;;;16.26;57.08;99965.27;1676243;84;20177;-75
2021/08/16 04:49:00;;;;;;;;;;;;;;;16.28;57.17;99956.91;1677354;84;20212;-75
2021/08/16 04:51:26;;;;;;;;;;;;;;;16.33;57.15;99958.38;1675463;84;20108;-75
2021/08/16 04:53:52;;;;;;;;;;;;;;;16.31;57.01;99956.77;1678927;85;20800;-75
2021/08/16 04:56:18;;;;;;;;;;;;;;;16.29;57.35;99955.53;1678197;84;20153;-75
2021/08/16 04:58:44;;;;;;;;;;;;;;;16.35;57.42;99955.23;1682423;84;20137;-75
2021/08/16 05:01:10;;;;;;;;;;;;;;;16.43;57.48;99952.23;1682593;84;20882;-75
2021/08/16 05:03:37;;;;;;;;;;;;;;;16.49;57.59;99952.77;1678667;85;20157;-75
2021/08/16 05:06:07;;;;;;;;;;;;;;;16.55;57.59;99956.83;1676970;84;20236;-74
2021/08/16 05:08:36;;;;;;;;;;;;;;;16.62;57.67;99963.89;1676945;84;20141;-74
2021/08/16 05:11:04;;;;;;;;;;;;;;;16.71;57.70;99956.89;1678336;84;20105;-74
2021/08/16 05:13:30;;;;;;;;;;;;;;;16.80;57.80;99960.33;1661017;82;5000242;-74
2021/08/16 05:15:56;;;;;;;;;;;;;;;16.94;57.89;99964.84;1734945;82;20155;-74
2021/08/16 05:18:22;;;;;;;;;;;;;;;17.22;58.21;99976.80;1736720;81;20104;-74
2021/08/16 05:20:49;;;;;;;;;;;;;;;17.63;58.04;99974.55;1742372;81;20090;-74
2021/08/16 05:23:18;;;;;;;;;;;;;;;18.16;58.16;99971.55;1734975;81;20100;-74
2021/08/16 05:25:45;;;;;;;;;;;;;;;18.79;58.29;99974.38;1733714;81;20084;-74
2021/08/16 05:28:12;;;;;;;;;;;;;;;19.46;58.26;99976.77;1718083;82;20115;-74
2021/08/16 05:30:38;;;;;;;;;;;;;;;20.11;57.78;99976.96;1733787;81;20447;-74
2021/08/16 05:33:05;;;;;;;;;;;;;;;20.67;57.30;99972.35;1735236;81;20084;-74
2021/08/16 05:35:31;;;;;;;;;;;;;;;21.18;57.59;99971.84;1731260;82;20139;-74
2021/08/16 05:37:57;;;;;;;;;;;;;;;21.89;57.36;99980.77;1684128;83;20154;-74
2021/08/16 05:40:27;;;;;;;;;;;;;;;22.58;56.95;99977.81;1724863;81;20090;-74
2021/08/16 05:42:53;;;;;;;;;;;;;;;23.13;56.26;99981.48;1717373;82;20128;-74
2021/08/16 05:45:19;;;;;;;;;;;;;;;23.50;56.13;99982.03;1721131;81;20677;-74
2021/08/16 05:47:45;;;;;;;;;;;;;;;24.06;56.19;99983.58;1718321;81;20124;-74
2021/08/16 05:50:11;;;;;;;;;;;;;;;24.57;55.85;99982.02;1681674;84;20147;-74
2021/08/16 05:52:38;;;;;;;;;;;;;;;25.11;55.50;99986.23;1682234;84;20137;-74
2021/08/16 05:55:05;;;;;;;;;;;;;;;25.47;54.94;99986.99;1724314;81;20117;-75
2021/08/16 05:57:32;;;;;;;;;;;;;;;25.78;55.18;99990.91;1689225;84;20119;-75
2021/08/16 05:59:58;;;;;;;;;;;;;;;26.17;54.91;99993.91;1705912;83;20115;-75
2021/08/16 06:02:24;;;;;;;;;;;;;;;26.54;54.69;99989.22;1690134;84;20842;-75
2021/08/16 06:04:50;;;;;;;;;;;;;;;26.80;54.67;99992.11;1679002;84;20727;-75
2021/08/16 06:07:16;;;;;;;;;;;;;;;27.08;54.45;99992.52;1690458;84;20779;-75
2021/08/16 06:09:42;;;;;;;;;;;;;;;27.40;54.20;99998.74;1732172;81;20165;-75
2021/08/16 06:12:08;;;;;;;;;;;;;;;27.68;53.96;99989.78;1731512;82;20114;-75
2021/08/16 06:14:34;;;;;;;;;;;;;;;27.99;53.67;99992.94;1733037;82;20163;-75
2021/08/16 06:17:01;;;;;;;;;;;;;;;28.21;53.32;99992.11;1725455;81;20132;-75
2021/08/16 06:19:27;;;;;;;;;;;;;;;28.26;53.22;99985.37;1727054;81;20688;-75
2021/08/16 06:21:55;;;;;;;;;;;;;;;28.57;53.19;99988.45;1720295;81;20484;-75
2021/08/16 06:24:21;;;;;;;;;;;;;;;28.89;52.91;99987.84;1728357;82;20190;-75
2021/08/16 06:26:46;;;;;;;;;;;;;;;29.14;52.61;99986.61;1727532;81;20162;-75
2021/08/16 06:29:12;;;;;;;;;;;;;;;29.27;52.95;99985.67;1717858;81;20245;-75
2021/08/16 06:31:38;;;;;;;;;;;;;;;29.05;52.09;99981.77;1713568;82;20149;-75
2021/08/16 06:34:07;;;;;;;;;;;;;;;29.01;52.36;99983.08;1735801;81;20509;-75
2021/08/16 06:36:38;;;;;;;;;;;;;;;29.24;52.20;99978.00;1732206;81;20098;-75
2021/08/16 06:39:00;;;;;;;;;;;;;;;29.55;51.82;99971.66;1730796;81;20498;-75
2021/08/16 06:41:26;;;;;;;;;;;;;;;29.50;51.38;99978.80;1730032;82;20522;-75
2021/08/16 06:43:59;;;;;;;;;;;;;;;29.58;51.68;99973.50;1733961;82;20797;-75
2021/08/16 06:46:25;;;;;;;;;;;;;;;29.40;51.12;99974.08;1688542;83;20736;-75
2021/08/16 06:48:51;;;;;;;;;;;;;;;29.55;51.06;99968.50;1699549;83;20113;-75
2021/08/16 06:51:17;;;;;;;;;;;;;;;29.87;50.89;99968.21;1692313;84;20752;-75
2021/08/16 06:53:43;;;;;;;;;;;;;;;30.07;50.38;99966.94;1701867;83;20507;-75
2021/08/16 06:56:09;;;;;;;;;;;;;;;30.28;50.78;99969.91;1722493;81;20481;-75
2021/08/16 06:58:35;;;;;;;;;;;;;;;30.49;50.19;99965.91;1722696;82;20469;-75
2021/08/16 07:01:01;;;;;;;;;;;;;;;30.65;50.13;99971.75;1728975;81;20843;-75
2021/08/16 07:03:30;;;;;;;;;;;;;;;30.92;50.21;99964.16;1737151;81;20202;-75
2021/08/16 07:05:56;;;;;;;;;;;;;;;31.12;49.89;99965.09;1733793;82;20694;-75
2021/08/16 07:08:22;;;;;;;;;;;;;;;31.16;49.59;99957.94;1691961;84;20238;-75
2021/08/16 07:10:49;;;;;;;;;;;;;;;31.22;49.33;99957.20;1692129;84;20166;-75
2021/08/16 07:13:16;;;;;;;;;;;;;;;31.52;49.40;99961.41;1685657;84;20483;-75
2021/08/16 07:15:42;;;;;;;;;;;;;;;31.72;48.83;99953.28;1699729;82;20112;-75
2021/08/16 07:18:08;;;;;;;;;;;;;;;31.60;48.49;99950.17;1706012;82;425277;-75
2021/08/16 07:20:34;;;;;;;;;;;;;;;31.69;48.79;99952.33;1676381;84;20150;-75
2021/08/16 07:23:00;;;;;;;;;;;;;;;31.89;47.76;99958.02;1700232;83;20190;-76
2021/08/16 07:25:26;;;;;;;;;;;;;;;32.19;47.53;99957.63;1700827;83;20456;-76
2021/08/16 07:27:53;;;;;;;;;;;;;;;32.52;47.33;99959.00;1689197;84;20434;-76
2021/08/16 07:30:18;;;;;;;;;;;;;;;32.87;47.02;99958.81;1702461;84;20130;-76
2021/08/16 07:32:45;;;;;;;;;;;;;;;33.08;46.84;99951.37;1697242;84;20831;-76
2021/08/16 07:35:12;;;;;;;;;;;;;;;33.04;46.14;99947.91;1715244;82;20531;-76
2021/08/16 07:37:38;;;;;;;;;;;;;;;33.03;46.21;99947.59;1734568;81;20754;-76
2021/08/16 07:40:05;;;;;;;;;;;;;;;32.93;45.78;99953.22;1722766;81;20186;-76
2021/08/16 07:42:31;;;;;;;;;;;;;;;33.04;45.82;99948.73;1734188;81;20444;-76
2021/08/16 07:44:58;;;;;;;;;;;;;;;33.29;45.78;99939.05;1733153;82;20931;-76
2021/08/16 07:47:24;;;;;;;;;;;;;;;33.47;44.93;99936.29;1689735;84;20762;-76
2021/08/16 07:49:50;;;;;;;;;;;;;;;33.52;44.55;99931.70;1715024;82;20749;-76
2021/08/16 07:52:17;;;;;;;;;;;;;;;33.58;44.47;99932.28;1682518;84;20476;-76
2021/08/16 07:54:44;;;;;;;;;;;;;;;33.64;43.99;99935.55;1731600;81;20191;-76
2021/08/16 07:57:10;;;;;;;;;;;;;;;33.83;44.04;99934.09;1685937;84;20095;-76
2021/08/16 07:59:36;;;;;;;;;;;;;;;33.83;43.81;99930.06;1733464;82;20779;-75
2021/08/16 08:02:03;;;;;;;;;;;;;;;33.66;43.10;99928.66;1728445;81;21097;-75
2021/08/16 08:04:29;;;;;;;;;;;;;;;33.63;43.06;99931.20;1686247;83;20461;-75
2021/08/16 08:06:56;;;;;;;;;;;;;;;33.60;42.80;99925.39;1734125;81;20096;-75
2021/08/16 08:09:22;;;;;;;;;;;;;;;33.59;42.56;99917.86;1732243;81;20444;-75
2021/08/16 08:11:48;;;;;;;;;;;;;;;33.62;42.30;99925.52;1734998;81;20242;-75
2021/08/16 08:14:14;;;;;;;;;;;;;;;33.59;42.03;99922.39;1732604;81;20722;-75
2021/08/16 08:16:40;;;;;;;;;;;;;;;33.57;41.74;99919.90;1730332;81;20120;-75
2021/08/16 08:19:06;;;;;;;;;;;;;;;33.47;41.54;99923.39;1733639;82;20171;-75
2021/08/16 08:21:32;;;;;;;;;;;;;;;33.34;41.60;99918.71;1729944;82;20359;-75
2021/08/16 08:23:58;;;;;;;;;;;;;;;33.25;41.03;99921.69;1690256;84;20217;-75
2021/08/16 08:26:24;;;;;;;;;;;;;;;33.28;40.83;99923.99;1692148;84;20346;-75
2021/08/16 08:28:51;;;;;;;;;;;;;;;33.39;40.76;99922.17;1695663;84;20142;-75
2021/08/16 08:31:19;;;;;;;;;;;;;;;33.61;41.05;99917.67;1696876;84;20144;-75
2021/08/16 08:33:45;;;;;;;;;;;;;;;33.57;40.65;99912.36;1699870;84;20477;-75
2021/08/16 08:36:11;;;;;;;;;;;;;;;33.49;40.57;99914.66;1702538;84;20165;-75
2021/08/16 08:38:37;;;;;;;;;;;;;;;33.36;40.27;99918.53;1706282;84;20232;-75
2021/08/16 08:41:06;;;;;;;;;;;;;;;33.17;39.56;99910.56;1686722;84;20168;-75
2021/08/16 08:43:33;;;;;;;;;;;;;;;32.92;39.84;99909.20;1673824;84;20107;-75
2021/08/16 08:46:01;;;;;;;;;;;;;;;32.68;39.30;99896.42;1683987;83;20150;-76
2021/08/16 08:48:26;;;;;;;;;;;;;;;32.57;38.96;99893.70;1687038;83;20348;-76
2021/08/16 08:50:53;;;;;;;;;;;;;;;32.57;38.81;99896.38;1723596;81;20167;-77
2021/08/16 08:53:19;;;;;;;;;;;;;;;33.06;38.83;99894.97;1713323;82;20085;-77
2021/08/16 08:55:48;;;;;;;;;;;;;;;33.51;38.62;99885.80;1715743;83;20140;-77
2021/08/16 08:58:14;;;;;;;;;;;;;;;34.04;38.85;99880.42;1719771;82;20192;-77
2021/08/16 09:00:40;;;;;;;;;;;;;;;34.33;38.40;99902.73;1721264;82;20630;-77
2021/08/16 09:03:08;;;;;;;;;;;;;;;34.53;38.29;99902.36;1712584;83;20159;-77
2021/08/16 09:05:47;;;;;;;;;;;;;;;34.66;38.19;99899.76;1720590;82;20129;-77
2021/08/16 09:08:25;;;;;;;;;;;;;;;34.70;38.13;99894.83;1718926;82;20105;-77
2021/08/16 09:10:51;;;;;;;;;;;;;;;34.60;37.76;99898.38;1712466;83;20155;-77
2021/08/16 09:13:25;;;;;;;;;;;;;;;34.32;37.12;99891.69;1716051;83;20231;-77
2021/08/16 09:15:53;;;;;;;;;;;;;;;34.08;36.96;99891.09;1729073;82;20395;-77
2021/08/16 09:18:28;;;;;;;;;;;;;;;33.75;36.71;99876.55;1721519;82;20093;-77
2021/08/16 09:20:54;;;;;;;;;;;;;;;33.29;36.79;99870.72;1719586;83;20092;-77
2021/08/16 09:23:20;;;;;;;;;;;;;;;32.76;36.16;99880.27;1713811;83;20109;-77
2021/08/16 09:25:57;;;;;;;;;;;;;;;32.41;35.96;99878.31;1715318;82;20087;-77
2021/08/16 09:28:31;;;;;;;;;;;;;;;32.07;35.69;99885.50;1661808;85;20156;-77
2021/08/16 09:31:07;;;;;;;;;;;;;;;31.73;35.56;99880.09;1688864;84;20108;-77
2021/08/16 09:33:33;;;;;;;;;;;;;;;31.48;35.40;99890.11;1670211;84;20136;-77
2021/08/16 09:35:59;;;;;;;;;;;;;;;31.28;35.18;99882.22;1676703;84;20167;-77
2021/08/16 09:38:39;;;;;;;;;;;;;;;31.15;35.25;99875.30;1676170;84;20108;-77
2021/08/16 09:41:07;;;;;;;;;;;;;;;30.97;34.98;99874.19;1674236;84;20105;-77
2021/08/16 09:43:33;;;;;;;;;;;;;;;30.78;34.91;99863.92;1655559;84;20446;-77
2021/08/16 09:46:00;;;;;;;;;;;;;;;30.65;35.03;99867.16;1673592;84;20172;-77
2021/08/16 09:48:26;;;;;;;;;;;;;;;30.56;34.81;99863.66;1672583;84;20149;-77
2021/08/16 09:50:55;;;;;;;;;;;;;;;30.53;34.80;99855.99;1705644;83;20200;-77
2021/08/16 09:53:23;;;;;;;;;;;;;;;30.51;34.72;99860.66;1710111;82;20139;-77
2021/08/16 09:55:53;;;;;;;;;;;;;;;30.44;34.58;99862.86;1679872;84;20103;-77
2021/08/16 09:58:19;;;;;;;;;;;;;;;30.33;34.56;99865.88;1679246;84;20118;-77
2021/08/16 10:00:54;;;;;;;;;;;;;;;30.27;34.62;99869.55;1687271;84;20147;-77
2021/08/16 10:03:20;;;;;;;;;;;;;;;30.23;34.55;99866.89;1679472;84;20125;-77
2021/08/16 10:05:48;;;;;;;;;;;;;;;30.25;34.59;99864.89;1699024;83;20449;-77
2021/08/16 10:08:24;;;;;;;;;;;;;;;30.28;34.59;99857.88;1684995;84;20136;-77
2021/08/16 10:10:55;;;;;;;;;;;;;;;30.33;34.52;99852.53;1672565;84;20145;-77
2021/08/16 10:13:21;;;;;;;;;;;;;;;30.37;34.60;99856.03;1678694;84;20138;-77
2021/08/16 10:15:54;;;;;;;;;;;;;;;30.43;34.38;99860.69;1675720;84;20227;-77
2021/08/16 10:18:26;;;;;;;;;;;;;;;30.49;34.35;99865.84;1708797;83;20136;-77
2021/08/16 10:20:52;;;;;;;;;;;;;;;30.53;34.26;99859.99;1711396;83;20125;-77
2021/08/16 10:23:20;;;;;;;;;;;;;;;30.52;34.29;99857.00;1681784;84;20120;-77
2021/08/16 10:25:48;;;;;;;;;;;;;;;30.51;34.33;99851.33;1682796;84;20157;-77
2021/08/16 10:28:34;;;;;;;;;;;;;;;30.56;34.29;99842.81;1695416;83;20117;-77
2021/08/16 10:31:03;;;;;;;;;;;;;;;30.64;34.21;99844.15;1700469;82;20141;-77
2021/08/16 10:33:29;;;;;;;;;;;;;;;30.63;34.20;99846.48;1727975;81;20130;-77
2021/08/16 10:35:56;;;;;;;;;;;;;;;30.55;34.03;99837.97;1697107;82;20123;-77
2021/08/16 10:38:25;;;;;;;;;;;;;;;30.51;34.06;99841.16;1725895;81;20092;-77
2021/08/16 10:40:53;;;;;;;;;;;;;;;30.56;34.10;99834.30;1724328;81;20371;-77
2021/08/16 10:43:20;;;;;;;;;;;;;;;30.60;34.09;99830.82;1730395;81;20577;-77
2021/08/16 10:45:56;;;;;;;;;;;;;;;30.71;34.23;99823.73;1728245;81;20116;-77
2021/08/16 10:48:29;;;;;;;;;;;;;;;30.86;34.15;99823.34;1723892;81;20095;-77
2021/08/16 10:51:10;;;;;;;;;;;;;;;30.92;34.04;99821.30;1721171;81;20591;-77
2021/08/16 10:53:49;;;;;;;;;;;;;;;30.95;33.98;99814.28;1720426;82;20102;-77
2021/08/16 10:56:17;;;;;;;;;;;;;;;30.92;33.92;99819.97;1730933;81;20096;-77
2021/08/16 10:58:44;;;;;;;;;;;;;;;30.74;33.91;99820.72;1732324;81;20147;-77
2021/08/16 11:01:28;;;;;;;;;;;;;;;30.63;33.99;99809.63;1724060;81;20129;-77
2021/08/16 11:04:00;;;;;;;;;;;;;;;30.56;33.96;99825.46;1732612;81;20094;-77
2021/08/16 11:06:26;;;;;;;;;;;;;;;30.35;33.92;99822.02;1726864;82;20545;-77
2021/08/16 11:09:00;;;;;;;;;;;;;;;30.22;34.00;99806.55;1721048;81;20132;-77
2021/08/16 11:11:29;;;;;;;;;;;;;;;30.15;33.96;99808.77;1726429;82;20130;-77
2021/08/16 11:14:06;;;;;;;;;;;;;;;30.14;33.98;99807.09;1733259;82;20102;-77
2021/08/16 11:16:33;;;;;;;;;;;;;;;30.13;34.06;99810.77;1688123;83;20108;-77
2021/08/16 11:19:00;;;;;;;;;;;;;;;29.99;33.94;99812.25;1696179;83;20153;-77
2021/08/16 11:21:29;;;;;;;;;;;;;;;29.92;33.93;99800.09;1664778;84;21804;-77
2021/08/16 11:23:59;;;;;;;;;;;;;;;29.87;34.05;99806.94;1665096;84;20148;-77
2021/08/16 11:26:26;;;;;;;;;;;;;;;29.82;33.95;99812.77;1709577;82;20162;-77
2021/08/16 11:29:06;;;;;;;;;;;;;;;29.74;33.98;99809.27;1676224;84;20381;-77
2021/08/16 11:31:33;;;;;;;;;;;;;;;29.71;33.93;99803.78;1683669;84;20133;-77
2021/08/16 11:34:07;;;;;;;;;;;;;;;29.59;33.95;99800.65;1682225;84;20133;-77
2021/08/16 11:36:36;;;;;;;;;;;;;;;29.55;33.98;99807.80;1680348;84;20154;-77
2021/08/16 11:39:05;;;;;;;;;;;;;;;29.46;33.97;99798.97;1700186;83;20125;-77
2021/08/16 11:41:32;;;;;;;;;;;;;;;29.52;34.04;99797.48;1700376;83;20134;-77
2021/08/16 11:44:09;;;;;;;;;;;;;;;29.57;34.02;99793.31;1683168;84;20183;-77
2021/08/16 11:46:45;;;;;;;;;;;;;;;29.63;34.04;99795.81;1680826;84;20118;-77
2021/08/16 11:49:12;;;;;;;;;;;;;;;29.72;34.12;99790.78;1685967;84;20105;-77
2021/08/16 11:51:42;;;;;;;;;;;;;;;29.85;34.12;99796.44;1699243;83;20407;-76
2021/08/16 11:54:29;;;;;;;;;;;;;;;29.99;34.01;99797.59;1692586;84;20111;-76
2021/08/16 11:56:57;;;;;;;;;;;;;;;30.00;33.92;99797.95;1677558;83;20384;-76
2021/08/16 11:59:29;;;;;;;;;;;;;;;29.91;33.88;99793.11;1690305;83;20151;-76
2021/08/16 12:01:57;;;;;;;;;;;;;;;29.80;33.96;99796.11;1690514;84;20960;-76
2021/08/16 12:04:24;;;;;;;;;;;;;;;29.76;33.95;99801.45;1732956;81;20095;-76
2021/08/16 12:06:53;;;;;;;;;;;;;;;29.64;34.03;99791.62;1671782;84;20173;-76
2021/08/16 12:09:19;;;;;;;;;;;;;;;29.52;34.07;99793.48;1682148;84;20436;-76
2021/08/16 12:11:59;;;;;;;;;;;;;;;29.48;34.03;99786.33;1692196;83;20558;-76
2021/08/16 12:14:29;;;;;;;;;;;;;;;29.42;34.04;99790.98;1692547;83;20428;-76
2021/08/16 12:16:55;;;;;;;;;;;;;;;29.33;34.12;99779.45;1677043;84;20167;-76
2021/08/16 12:19:21;;;;;;;;;;;;;;;29.32;34.22;99779.12;1702066;82;20144;-76
2021/08/16 12:21:47;;;;;;;;;;;;;;;29.34;34.25;99784.28;1708073;83;20093;-76
2021/08/16 12:24:29;;;;;;;;;;;;;;;29.36;34.36;99789.44;1711669;83;20325;-76
2021/08/16 12:27:03;;;;;;;;;;;;;;;29.46;34.37;99782.98;1698682;82;20097;-76
2021/08/16 12:29:45;;;;;;;;;;;;;;;29.57;34.42;99799.15;1700168;83;20111;-76
2021/08/16 12:32:20;;;;;;;;;;;;;;;29.56;34.29;99782.83;1701948;83;20454;-76
2021/08/16 12:34:47;;;;;;;;;;;;;;;29.47;34.40;99777.16;1700712;83;20107;-76
2021/08/16 12:37:33;;;;;;;;;;;;;;;29.44;34.44;99777.00;1704750;83;20130;-77
2021/08/16 12:40:17;;;;;;;;;;;;;;;29.33;34.52;99766.64;1670995;84;20123;-77
2021/08/16 12:43:04;;;;;;;;;;;;;;;29.22;34.61;99777.11;1674916;84;20131;-76
2021/08/16 12:45:31;;;;;;;;;;;;;;;29.20;34.70;99770.28;1673328;84;20123;-76